createdAt,value
2024-05-09T00:00:04.913Z,85.38
2024-05-09T00:02:08.562Z,85.51
2024-05-09T00:04:10.888Z,85.49
2024-05-09T00:06:13.545Z,85.39
2024-05-09T00:08:16.645Z,85.51
2024-05-09T00:10:25.556Z,85.58
2024-05-09T00:12:35.394Z,85.44
2024-05-09T00:14:37.676Z,84.86
2024-05-09T00:16:39.742Z,85.00
2024-05-09T00:18:42.100Z,85.27
2024-05-09T00:20:44.433Z,85.06
2024-05-09T00:22:46.742Z,85.15
2024-05-09T00:24:48.969Z,85.18
2024-05-09T00:26:51.136Z,84.74
2024-05-09T00:28:53.323Z,84.94
2024-05-09T00:30:55.488Z,85.01
2024-05-09T00:32:57.890Z,84.77
2024-05-09T00:35:00.301Z,84.90
2024-05-09T00:37:02.513Z,85.02
2024-05-09T00:39:04.654Z,85.19
2024-05-09T00:41:06.868Z,84.96
2024-05-09T00:43:10.391Z,84.86
2024-05-09T00:45:13.233Z,84.84
2024-05-09T00:47:15.669Z,84.87
2024-05-09T00:49:18.005Z,84.91
2024-05-09T00:51:20.429Z,84.84
2024-05-09T00:53:22.756Z,84.71
2024-05-09T00:55:25.603Z,84.61
2024-05-09T00:57:28.299Z,84.42
2024-05-09T00:59:31.171Z,84.56
2024-05-09T01:01:33.665Z,84.56
2024-05-09T01:03:36.676Z,83.90
2024-05-09T01:05:39.716Z,83.74
2024-05-09T01:07:43.138Z,83.51
2024-05-09T01:09:45.264Z,83.47
2024-05-09T01:11:47.646Z,83.52
2024-05-09T01:13:50.021Z,83.21
2024-05-09T01:15:55.426Z,83.32
2024-05-09T01:17:58.527Z,82.77
2024-05-09T01:20:01.030Z,82.49
2024-05-09T01:22:04.665Z,82.57
2024-05-09T01:24:06.894Z,82.81
2024-05-09T01:26:09.025Z,82.94
2024-05-09T01:28:11.358Z,82.78
2024-05-09T01:30:17.428Z,82.72
2024-05-09T01:32:23.723Z,82.75
2024-05-09T01:34:26.785Z,82.91
2024-05-09T01:36:29.012Z,82.79
2024-05-09T01:38:31.246Z,82.66
2024-05-09T01:40:38.605Z,82.68
2024-05-09T01:42:42.530Z,82.93
2024-05-09T01:44:44.639Z,83.15
2024-05-09T01:46:46.883Z,83.20
2024-05-09T01:48:49.088Z,83.29
2024-05-09T01:50:51.614Z,83.18
2024-05-09T01:52:53.843Z,83.17
2024-05-09T01:54:56.024Z,83.05
2024-05-09T01:56:58.160Z,83.35
2024-05-09T01:59:02.931Z,83.50
2024-05-09T02:01:05.362Z,83.65
2024-05-09T02:03:13.561Z,83.84
2024-05-09T02:05:18.872Z,83.28
2024-05-09T02:07:21.120Z,82.84
2024-05-09T02:09:23.207Z,83.10
2024-05-09T02:11:25.560Z,83.60
2024-05-09T02:13:27.842Z,83.87
2024-05-09T02:15:29.946Z,83.97
2024-05-09T02:17:32.105Z,84.29
2024-05-09T02:19:34.464Z,84.11
2024-05-09T02:21:37.892Z,84.03
2024-05-09T02:23:40.020Z,83.75
2024-05-09T02:25:42.407Z,83.56
2024-05-09T02:27:44.532Z,83.53
2024-05-09T02:29:46.607Z,83.51
2024-05-09T02:31:48.959Z,84.07
2024-05-09T02:33:52.108Z,84.13
2024-05-09T02:35:54.556Z,84.19
2024-05-09T02:37:56.717Z,83.60
2024-05-09T02:39:58.859Z,83.42
2024-05-09T02:42:00.972Z,83.49
2024-05-09T02:44:03.293Z,83.65
2024-05-09T02:46:07.107Z,83.94
2024-05-09T02:48:13.633Z,83.68
2024-05-09T02:50:25.954Z,82.52
2024-05-09T02:52:32.325Z,82.94
2024-05-09T02:54:34.529Z,83.69
2024-05-09T02:56:36.770Z,83.79
2024-05-09T02:58:38.946Z,83.54
2024-05-09T03:00:42.958Z,83.68
2024-05-09T03:02:45.625Z,83.97
2024-05-09T03:04:48.054Z,84.20
2024-05-09T03:06:50.211Z,84.34
2024-05-09T03:08:52.453Z,83.90
2024-05-09T03:10:56.839Z,84.16
2024-05-09T03:12:59.170Z,84.41
2024-05-09T03:15:01.354Z,84.43
2024-05-09T03:17:03.796Z,84.55
2024-05-09T03:19:06.166Z,84.55
2024-05-09T03:21:08.907Z,84.78
2024-05-09T03:23:11.271Z,84.55
2024-05-09T03:25:13.562Z,84.66
2024-05-09T03:27:15.671Z,85.03
2024-05-09T03:29:17.866Z,85.06
2024-05-09T03:31:20.001Z,85.20
2024-05-09T03:33:22.540Z,85.12
2024-05-09T03:35:25.000Z,85.16
2024-05-09T03:37:27.494Z,85.51
2024-05-09T03:39:29.696Z,85.53
2024-05-09T03:41:31.939Z,84.77
2024-05-09T03:43:34.187Z,84.77
2024-05-09T03:45:36.287Z,85.00
2024-05-09T03:47:38.531Z,85.34
2024-05-09T03:49:40.827Z,85.41
2024-05-09T03:51:43.098Z,85.28
2024-05-09T03:53:45.251Z,84.99
2024-05-09T03:55:47.482Z,85.02
2024-05-09T03:57:49.713Z,84.82
2024-05-09T03:59:51.856Z,84.26
2024-05-09T04:01:55.108Z,83.62
2024-05-09T04:03:57.280Z,83.95
2024-05-09T04:05:59.589Z,84.44
2024-05-09T04:08:02.022Z,84.74
2024-05-09T04:10:06.802Z,84.84
2024-05-09T04:12:11.079Z,83.25
2024-05-09T04:14:13.380Z,83.90
2024-05-09T04:16:15.610Z,83.52
2024-05-09T04:18:18.506Z,83.77
2024-05-09T04:20:32.382Z,83.32
2024-05-09T04:22:39.963Z,84.03
2024-05-09T04:24:42.172Z,84.36
2024-05-09T04:26:44.321Z,84.77
2024-05-09T04:28:46.710Z,84.02
2024-05-09T04:30:48.823Z,83.60
2024-05-09T04:32:51.273Z,82.76
2024-05-09T04:34:53.439Z,82.06
2024-05-09T04:36:55.563Z,81.69
2024-05-09T04:38:57.583Z,82.69
2024-05-09T04:40:59.856Z,83.09
2024-05-09T04:43:02.148Z,83.39
2024-05-09T04:45:04.627Z,82.35
2024-05-09T04:47:06.948Z,82.81
2024-05-09T04:49:09.284Z,83.23
2024-05-09T04:51:11.518Z,82.46
2024-05-09T04:53:17.084Z,82.07
2024-05-09T04:55:19.405Z,82.21
2024-05-09T04:57:21.743Z,81.10
2024-05-09T04:59:24.243Z,81.79
2024-05-09T05:01:26.662Z,81.54
2024-05-09T05:03:29.306Z,81.45
2024-05-09T05:05:31.663Z,80.70
2024-05-09T05:07:34.121Z,80.81
2024-05-09T05:09:36.311Z,80.36
2024-05-09T05:11:38.713Z,80.30
2024-05-09T05:13:41.703Z,78.26
2024-05-09T05:15:44.346Z,78.69
2024-05-09T05:17:46.710Z,78.14
2024-05-09T05:19:49.065Z,78.95
2024-05-09T05:21:51.374Z,78.37
2024-05-09T05:23:53.578Z,75.91
2024-05-09T05:25:56.000Z,77.18
2024-05-09T05:27:58.408Z,77.34
2024-05-09T05:30:00.507Z,76.78
2024-05-09T05:32:03.082Z,77.05
2024-05-09T05:34:05.275Z,75.90
2024-05-09T05:36:08.087Z,75.76
2024-05-09T05:38:10.777Z,74.76
2024-05-09T05:40:20.680Z,74.86
2024-05-09T05:42:27.192Z,74.78
2024-05-09T05:44:29.435Z,75.31
2024-05-09T05:46:31.671Z,74.66
2024-05-09T05:48:34.055Z,73.99
2024-05-09T05:50:38.180Z,73.50
2024-05-09T05:52:40.941Z,74.10
2024-05-09T05:54:43.107Z,71.01
2024-05-09T05:56:45.379Z,71.46
2024-05-09T05:58:47.573Z,71.10
2024-05-09T06:00:53.431Z,71.32
2024-05-09T06:02:56.076Z,72.58
2024-05-09T06:04:59.691Z,71.70
2024-05-09T06:07:01.932Z,72.09
2024-05-09T06:09:05.879Z,73.29
2024-05-09T06:11:08.108Z,71.74
2024-05-09T06:13:11.759Z,73.18
2024-05-09T06:15:14.412Z,72.53
2024-05-09T06:17:16.799Z,72.24
2024-05-09T06:19:19.994Z,72.25
2024-05-09T06:21:22.168Z,71.53
2024-05-09T06:23:24.443Z,71.37
2024-05-09T06:25:27.130Z,72.78
2024-05-09T06:27:29.353Z,72.90
2024-05-09T06:29:31.790Z,72.11
2024-05-09T06:31:40.442Z,71.42
2024-05-09T06:33:42.724Z,71.90
2024-05-09T06:35:46.323Z,71.30
2024-05-09T06:37:48.713Z,71.59
2024-05-09T06:39:51.086Z,71.20
2024-05-09T06:41:56.678Z,71.57
2024-05-09T06:44:01.572Z,71.35
2024-05-09T06:46:04.475Z,70.93
2024-05-09T06:48:07.835Z,71.77
2024-05-09T06:50:19.606Z,71.72
2024-05-09T06:52:25.677Z,71.72
2024-05-09T06:54:27.935Z,71.48
2024-05-09T06:56:30.239Z,72.09
2024-05-09T06:58:32.613Z,71.32
2024-05-09T07:00:39.623Z,72.00
2024-05-09T07:02:43.539Z,72.72
2024-05-09T07:04:46.087Z,72.61
2024-05-09T07:06:48.383Z,72.76
2024-05-09T07:08:52.396Z,72.48
2024-05-09T07:10:55.076Z,73.07
2024-05-09T07:12:57.279Z,72.98
2024-05-09T07:14:59.443Z,72.24
2024-05-09T07:17:01.845Z,71.51
2024-05-09T07:19:04.587Z,71.48
2024-05-09T07:21:06.950Z,70.90
2024-05-09T07:23:10.312Z,71.43
2024-05-09T07:25:12.603Z,71.74
2024-05-09T07:27:14.792Z,70.51
2024-05-09T07:29:17.256Z,70.79
2024-05-09T07:31:19.551Z,70.87
2024-05-09T07:33:23.967Z,69.68
2024-05-09T07:35:27.072Z,68.99
2024-05-09T07:37:29.342Z,68.58
2024-05-09T07:39:31.538Z,68.39
2024-05-09T07:41:33.761Z,67.94
2024-05-09T07:43:35.927Z,67.14
2024-05-09T07:45:48.516Z,65.69
2024-05-09T07:49:44.131Z,66.40
2024-05-09T07:53:30.189Z,63.58
2024-05-09T07:54:48.244Z,62.39
2024-05-09T07:56:50.507Z,63.20
2024-05-09T07:58:56.482Z,63.96
2024-05-09T08:00:58.788Z,64.03
2024-05-09T08:03:01.197Z,61.69
2024-05-09T08:05:03.560Z,61.73
2024-05-09T08:07:05.903Z,61.99
2024-05-09T08:09:13.596Z,60.51
2024-05-09T08:11:20.632Z,60.56
2024-05-09T08:13:23.297Z,61.20
2024-05-09T08:15:25.828Z,60.67
2024-05-09T08:17:29.448Z,60.34
2024-05-09T08:19:32.141Z,60.96
2024-05-09T08:21:40.579Z,59.67
2024-05-09T08:23:42.988Z,61.38
2024-05-09T08:25:45.112Z,61.01
2024-05-09T08:27:47.219Z,59.83
2024-05-09T08:29:49.405Z,59.12
2024-05-09T08:31:55.999Z,59.08
2024-05-09T08:33:58.292Z,57.70
2024-05-09T08:36:00.635Z,59.80
2024-05-09T08:38:07.494Z,58.29
2024-05-09T08:40:23.595Z,59.23
2024-05-09T08:42:35.986Z,59.84
2024-05-09T08:44:38.211Z,60.79
2024-05-09T08:46:41.663Z,60.54
2024-05-09T08:48:45.872Z,60.09
2024-05-09T08:50:48.180Z,60.41
2024-05-09T08:52:50.248Z,60.04
2024-05-09T08:54:54.960Z,60.97
2024-05-09T08:56:57.965Z,60.80
2024-05-09T08:59:02.449Z,58.38
2024-05-09T09:01:05.328Z,58.51
2024-05-09T09:03:10.247Z,58.59
2024-05-09T09:05:17.319Z,58.86
2024-05-09T09:07:19.815Z,58.06
2024-05-09T09:09:22.065Z,57.86
2024-05-09T09:11:24.331Z,57.80
2024-05-09T09:13:27.353Z,57.80
2024-05-09T09:15:29.857Z,58.33
2024-05-09T09:17:32.080Z,59.01
2024-05-09T09:19:35.547Z,58.66
2024-05-09T09:21:37.837Z,60.26
2024-05-09T09:23:40.117Z,59.12
2024-05-09T09:25:42.460Z,58.88
2024-05-09T09:27:44.581Z,60.29
2024-05-09T09:29:47.562Z,60.10
2024-05-09T09:32:11.477Z,60.35
2024-05-09T09:34:13.773Z,60.76
2024-05-09T09:36:18.564Z,61.72
2024-05-09T09:38:23.488Z,62.27
2024-05-09T09:40:32.287Z,64.21
2024-05-09T09:42:37.908Z,65.13
2024-05-09T09:44:42.285Z,65.47
2024-05-09T09:46:47.305Z,65.63
2024-05-09T09:48:49.681Z,64.55
2024-05-09T09:50:53.002Z,64.66
2024-05-09T09:52:55.672Z,65.22
2024-05-09T09:54:58.202Z,66.59
2024-05-09T09:57:01.252Z,65.52
2024-05-09T09:59:04.872Z,65.51
2024-05-09T10:01:07.061Z,65.72
2024-05-09T10:03:09.751Z,64.95
2024-05-09T10:05:12.316Z,64.27
2024-05-09T10:07:15.283Z,63.99
2024-05-09T10:09:18.371Z,64.74
2024-05-09T10:11:24.008Z,63.15
2024-05-09T10:13:35.068Z,62.97
2024-05-09T10:15:54.532Z,63.35
2024-05-09T10:18:15.611Z,63.23
2024-05-09T10:20:22.173Z,63.05
2024-05-09T10:22:31.020Z,63.12
2024-05-09T10:24:53.354Z,62.41
2024-05-09T10:26:56.438Z,62.38
2024-05-09T10:28:59.235Z,61.77
2024-05-09T10:31:13.671Z,60.36
2024-05-09T10:33:20.304Z,62.08
2024-05-09T10:35:25.467Z,61.65
2024-05-09T10:37:30.984Z,62.49
2024-05-09T10:39:39.299Z,62.13
2024-05-09T10:41:41.471Z,61.16
2024-05-09T10:43:43.725Z,62.03
2024-05-09T10:45:45.882Z,62.12
2024-05-09T10:47:48.098Z,61.34
2024-05-09T10:49:50.619Z,60.29
2024-05-09T10:51:53.433Z,61.57
2024-05-09T10:53:57.172Z,61.06
2024-05-09T10:56:00.874Z,60.83
2024-05-09T10:58:02.962Z,59.73
2024-05-09T11:00:10.081Z,60.09
2024-05-09T11:02:17.299Z,60.41
2024-05-09T11:04:20.209Z,60.70
2024-05-09T11:06:23.676Z,62.31
2024-05-09T11:08:25.976Z,61.77
2024-05-09T11:10:33.724Z,60.77
2024-05-09T11:12:36.689Z,60.86
2024-05-09T11:14:39.138Z,61.14
2024-05-09T11:16:41.396Z,60.04
2024-05-09T11:18:43.954Z,57.74
2024-05-09T11:20:46.454Z,56.59
2024-05-09T11:22:48.681Z,58.60
2024-05-09T11:24:50.852Z,59.19
2024-05-09T11:26:53.009Z,59.46
2024-05-09T11:28:55.174Z,59.83
2024-05-09T11:31:09.085Z,59.93
2024-05-09T11:33:14.642Z,61.99
2024-05-09T11:35:16.846Z,63.21
2024-05-09T11:37:19.294Z,62.60
2024-05-09T11:39:21.465Z,62.57
2024-05-09T11:41:23.981Z,62.77
2024-05-09T11:43:26.223Z,64.29
2024-05-09T11:45:28.463Z,64.27
2024-05-09T11:47:30.850Z,64.67
2024-05-09T11:49:33.272Z,64.29
2024-05-09T11:51:35.584Z,63.68
2024-05-09T11:53:37.868Z,62.59
2024-05-09T11:55:39.908Z,63.57
2024-05-09T11:57:42.106Z,63.62
2024-05-09T11:59:44.575Z,63.25
2024-05-09T12:01:46.875Z,62.61
2024-05-09T12:03:49.776Z,62.39
2024-05-09T12:05:52.090Z,61.09
2024-05-09T12:07:54.965Z,61.31
2024-05-09T12:09:57.056Z,60.79
2024-05-09T12:11:59.210Z,61.25
2024-05-09T12:14:01.542Z,60.53
2024-05-09T12:16:03.969Z,59.83
2024-05-09T12:18:08.016Z,58.96
2024-05-09T12:20:20.917Z,56.26
2024-05-09T12:22:27.858Z,57.08
2024-05-09T12:24:30.682Z,57.16
2024-05-09T12:26:32.793Z,55.87
2024-05-09T12:28:34.861Z,56.91
2024-05-09T12:30:41.615Z,58.09
2024-05-09T12:32:46.292Z,57.41
2024-05-09T12:34:48.556Z,55.49
2024-05-09T12:36:50.660Z,55.33
2024-05-09T12:38:52.962Z,57.01
2024-05-09T12:40:55.231Z,57.91
2024-05-09T12:42:57.568Z,57.57
2024-05-09T12:44:59.745Z,58.47
2024-05-09T12:47:01.857Z,58.67
2024-05-09T12:49:04.711Z,58.89
2024-05-09T12:51:07.165Z,58.59
2024-05-09T12:53:09.461Z,58.51
2024-05-09T12:55:11.752Z,56.07
2024-05-09T12:57:13.974Z,56.71
2024-05-09T12:59:16.128Z,57.08
2024-05-09T13:01:18.278Z,57.00
2024-05-09T13:03:20.675Z,56.59
2024-05-09T13:05:23.097Z,57.23
2024-05-09T13:07:25.853Z,56.12
2024-05-09T13:09:28.031Z,56.77
2024-05-09T13:11:30.438Z,58.09
2024-05-09T13:13:32.617Z,57.51
2024-05-09T13:15:35.056Z,56.89
2024-05-09T13:17:37.481Z,55.45
2024-05-09T13:19:39.564Z,57.00
2024-05-09T13:21:41.687Z,57.22
2024-05-09T13:23:44.471Z,57.90
2024-05-09T13:25:46.837Z,58.29
2024-05-09T13:27:49.042Z,59.28
2024-05-09T13:29:51.325Z,57.76
2024-05-09T13:31:53.435Z,60.02
2024-05-09T13:33:55.636Z,59.52
2024-05-09T13:35:58.018Z,59.38
2024-05-09T13:38:02.177Z,59.37
2024-05-09T13:40:07.090Z,60.40
2024-05-09T13:42:10.116Z,61.17
2024-05-09T13:44:12.244Z,60.98
2024-05-09T13:46:14.631Z,61.38
2024-05-09T13:48:17.519Z,61.01
2024-05-09T13:50:33.304Z,60.63
2024-05-09T13:52:38.164Z,60.28
2024-05-09T13:54:40.209Z,59.62
2024-05-09T13:56:42.442Z,60.67
2024-05-09T13:58:44.644Z,61.83
2024-05-09T14:00:48.985Z,61.77
2024-05-09T14:02:51.773Z,61.93
2024-05-09T14:04:54.595Z,62.31
2024-05-09T14:06:56.881Z,62.10
2024-05-09T14:08:59.227Z,62.43
2024-05-09T14:11:01.512Z,63.27
2024-05-09T14:13:03.775Z,61.82
2024-05-09T14:15:06.361Z,61.79
2024-05-09T14:17:08.811Z,63.24
2024-05-09T14:19:11.281Z,64.03
2024-05-09T14:21:13.598Z,63.34
2024-05-09T14:23:18.115Z,62.97
2024-05-09T14:25:20.347Z,63.41
2024-05-09T14:27:22.678Z,63.52
2024-05-09T14:29:24.824Z,63.95
2024-05-09T14:31:27.234Z,64.17
2024-05-09T14:33:30.891Z,64.37
2024-05-09T14:35:33.211Z,64.04
2024-05-09T14:37:37.886Z,64.82
2024-05-09T14:39:41.980Z,65.92
2024-05-09T14:41:44.162Z,66.16
2024-05-09T14:43:46.467Z,66.31
2024-05-09T14:45:48.803Z,66.69
2024-05-09T14:47:51.600Z,66.61
2024-05-09T14:49:53.967Z,67.30
2024-05-09T14:51:56.394Z,67.20
2024-05-09T14:53:58.559Z,67.31
2024-05-09T14:56:00.790Z,67.76
2024-05-09T14:58:03.349Z,67.24
2024-05-09T15:00:11.392Z,67.78
2024-05-09T15:02:19.451Z,67.90
2024-05-09T15:04:22.154Z,67.75
2024-05-09T15:06:24.461Z,67.61
2024-05-09T15:08:26.726Z,67.65
2024-05-09T15:10:34.706Z,68.26
2024-05-09T15:12:38.711Z,69.09
2024-05-09T15:14:41.295Z,68.42
2024-05-09T15:16:43.514Z,68.67
2024-05-09T15:18:45.770Z,68.66
2024-05-09T15:20:48.548Z,68.49
2024-05-09T15:22:50.891Z,68.93
2024-05-09T15:24:54.585Z,68.62
2024-05-09T15:26:56.806Z,68.89
2024-05-09T15:28:59.508Z,69.10
2024-05-09T15:31:01.937Z,69.22
2024-05-09T15:33:04.854Z,68.03
2024-05-09T15:35:10.432Z,68.20
2024-05-09T15:37:13.722Z,67.83
2024-05-09T15:39:15.985Z,68.07
2024-05-09T15:41:18.302Z,67.14
2024-05-09T15:43:20.667Z,67.41
2024-05-09T15:45:22.775Z,68.20
2024-05-09T15:47:24.899Z,68.05
2024-05-09T15:49:30.061Z,67.95
2024-05-09T15:51:33.007Z,68.68
2024-05-09T15:54:12.592Z,67.61
2024-05-09T15:56:15.000Z,66.07
2024-05-09T15:58:18.504Z,66.98
2024-05-09T16:00:29.094Z,67.85
2024-05-09T16:02:39.296Z,67.78
2024-05-09T16:04:41.574Z,67.40
2024-05-09T16:06:48.189Z,67.77
2024-05-09T16:08:50.403Z,68.42
2024-05-09T16:10:52.613Z,66.72
2024-05-09T16:12:55.107Z,67.73
2024-05-09T16:14:57.182Z,68.22
2024-05-09T16:16:59.576Z,69.66
2024-05-09T16:19:01.970Z,70.46
2024-05-09T16:21:05.596Z,70.22
2024-05-09T16:23:08.798Z,70.01
2024-05-09T16:25:11.436Z,70.74
2024-05-09T16:27:13.673Z,68.37
2024-05-09T16:29:15.970Z,68.95
2024-05-09T16:31:18.108Z,68.89
2024-05-09T16:33:25.823Z,68.60
2024-05-09T16:35:28.313Z,69.78
2024-05-09T16:37:30.450Z,70.08
2024-05-09T16:39:32.862Z,69.61
2024-05-09T16:41:35.055Z,70.27
2024-05-09T16:43:37.207Z,71.21
2024-05-09T16:45:44.983Z,71.40
2024-05-09T16:47:47.493Z,69.16
2024-05-09T16:49:49.730Z,70.32
2024-05-09T16:51:51.951Z,71.35
2024-05-09T16:53:54.158Z,71.22
2024-05-09T16:55:59.301Z,70.69
2024-05-09T16:58:01.549Z,71.63
2024-05-09T17:00:07.344Z,71.64
2024-05-09T17:02:15.317Z,71.32
2024-05-09T17:04:17.959Z,72.05
2024-05-09T17:06:20.188Z,71.96
2024-05-09T17:08:22.406Z,71.25
2024-05-09T17:10:31.345Z,72.76
2024-05-09T17:12:35.612Z,72.16
2024-05-09T17:14:37.800Z,71.98
2024-05-09T17:16:40.263Z,71.99
2024-05-09T17:18:42.479Z,72.55
2024-05-09T17:20:44.646Z,73.11
2024-05-09T17:22:46.983Z,73.41
2024-05-09T17:24:49.147Z,72.36
2024-05-09T17:26:53.042Z,72.32
2024-05-09T17:28:55.313Z,71.78
2024-05-09T17:30:58.270Z,72.28
2024-05-09T17:33:00.764Z,72.37
2024-05-09T17:35:05.430Z,73.10
2024-05-09T17:37:07.704Z,73.04
2024-05-09T17:39:09.825Z,73.44
2024-05-09T17:41:11.919Z,73.04
2024-05-09T17:43:14.015Z,72.93
2024-05-09T17:45:16.469Z,72.35
2024-05-09T17:47:19.046Z,71.86
2024-05-09T17:49:21.203Z,73.47
2024-05-09T17:51:23.410Z,73.41
2024-05-09T17:53:25.824Z,74.02
2024-05-09T17:55:28.772Z,74.23
2024-05-09T17:57:31.209Z,74.95
2024-05-09T17:59:33.665Z,75.31
2024-05-09T18:01:35.984Z,75.70
2024-05-09T18:03:39.666Z,76.57
2024-05-09T18:05:43.667Z,77.52
2024-05-09T18:07:46.829Z,78.25
2024-05-09T18:09:48.953Z,78.99
2024-05-09T18:11:51.169Z,78.65
2024-05-09T18:13:54.402Z,78.68
2024-05-09T18:15:58.841Z,78.87
2024-05-09T18:18:01.702Z,79.18
2024-05-09T18:20:05.784Z,79.72
2024-05-09T18:22:07.993Z,78.85
2024-05-09T18:24:10.526Z,79.67
2024-05-09T18:26:13.164Z,79.67
2024-05-09T18:28:17.077Z,79.68
2024-05-09T18:30:27.418Z,79.03
2024-05-09T18:32:34.014Z,79.40
2024-05-09T18:34:36.193Z,79.41
2024-05-09T18:36:38.898Z,78.86
2024-05-09T18:38:41.030Z,79.72
2024-05-09T18:40:45.926Z,79.41
2024-05-09T18:42:50.561Z,79.72
2024-05-09T18:44:52.803Z,78.80
2024-05-09T18:46:55.182Z,79.53
2024-05-09T18:48:58.184Z,79.11
2024-05-09T18:51:00.503Z,79.05
2024-05-09T18:53:03.020Z,79.33
2024-05-09T18:55:05.773Z,79.76
2024-05-09T18:57:08.721Z,79.77
2024-05-09T18:59:10.966Z,80.01
2024-05-09T19:01:13.608Z,80.46
2024-05-09T19:03:16.238Z,80.22
2024-05-09T19:05:18.632Z,79.92
2024-05-09T19:07:20.831Z,79.98
2024-05-09T19:09:22.897Z,80.14
2024-05-09T19:11:24.983Z,80.24
2024-05-09T19:13:27.449Z,79.84
2024-05-09T19:15:29.667Z,79.77
2024-05-09T19:17:31.940Z,79.16
2024-05-09T19:19:34.407Z,79.04
2024-05-09T19:21:37.939Z,79.23
2024-05-09T19:23:47.167Z,79.14
2024-05-09T19:25:54.209Z,77.79
2024-05-09T19:27:56.526Z,78.03
2024-05-09T19:29:58.791Z,78.20
2024-05-09T19:32:01.385Z,78.95
2024-05-09T19:34:03.573Z,79.26
2024-05-09T19:36:07.157Z,78.62
2024-05-09T19:38:09.471Z,79.20
2024-05-09T19:40:18.288Z,77.75
2024-05-09T19:42:27.801Z,77.82
2024-05-09T19:44:29.924Z,77.28
2024-05-09T19:46:32.098Z,79.17
2024-05-09T19:48:34.666Z,79.43
2024-05-09T19:50:42.382Z,78.91
2024-05-09T19:52:46.515Z,78.52
2024-05-09T19:54:50.127Z,78.75
2024-05-09T19:56:52.418Z,79.63
2024-05-09T19:58:55.389Z,79.87
2024-05-09T20:00:57.517Z,80.15
2024-05-09T20:02:59.961Z,79.95
2024-05-09T20:05:03.750Z,80.39
2024-05-09T20:07:06.049Z,80.41
2024-05-09T20:09:08.297Z,80.11
2024-05-09T20:11:10.834Z,80.11
2024-05-09T20:13:14.037Z,80.14
2024-05-09T20:15:16.399Z,80.01
2024-05-09T20:17:18.687Z,79.24
2024-05-09T20:19:21.381Z,79.31
2024-05-09T20:21:24.881Z,79.30
2024-05-09T20:23:27.334Z,80.04
2024-05-09T20:25:29.368Z,80.20
2024-05-09T20:27:31.582Z,80.36
2024-05-09T20:29:33.884Z,80.62
2024-05-09T20:31:36.084Z,81.41
2024-05-09T20:33:39.678Z,80.36
2024-05-09T20:35:41.953Z,79.74
2024-05-09T20:37:44.063Z,79.30
2024-05-09T20:39:46.254Z,79.91
2024-05-09T20:41:48.620Z,80.36
2024-05-09T20:43:50.765Z,80.31
2024-05-09T20:45:53.046Z,80.40
2024-05-09T20:47:55.592Z,80.29
2024-05-09T20:49:57.837Z,80.41
2024-05-09T20:52:00.046Z,80.14
2024-05-09T20:54:02.123Z,79.94
2024-05-09T20:56:04.433Z,79.83
2024-05-09T20:58:06.678Z,79.78
2024-05-09T21:00:15.027Z,79.98
2024-05-09T21:02:21.145Z,80.11
2024-05-09T21:04:23.749Z,80.27
2024-05-09T21:06:26.025Z,80.35
2024-05-09T21:08:28.202Z,80.62
2024-05-09T21:10:33.258Z,80.67
2024-05-09T21:12:36.467Z,81.03
2024-05-09T21:14:39.024Z,81.01
2024-05-09T21:16:41.374Z,81.11
2024-05-09T21:18:43.966Z,81.31
2024-05-09T21:20:46.161Z,81.23
2024-05-09T21:22:48.299Z,80.51
2024-05-09T21:24:50.860Z,80.40
2024-05-09T21:26:53.409Z,79.91
2024-05-09T21:28:55.637Z,80.62
2024-05-09T21:30:57.758Z,81.29
2024-05-09T21:33:00.515Z,81.18
2024-05-09T21:35:02.679Z,81.45
2024-05-09T21:37:05.113Z,80.74
2024-05-09T21:39:10.492Z,81.36
2024-05-09T21:41:12.607Z,81.14
2024-05-09T21:43:15.049Z,81.68
2024-05-09T21:45:17.266Z,81.71
2024-05-09T21:47:19.791Z,81.14
2024-05-09T21:49:22.288Z,81.86
2024-05-09T21:51:25.319Z,82.04
2024-05-09T21:53:27.464Z,81.65
2024-05-09T21:55:30.213Z,81.63
2024-05-09T21:57:32.460Z,81.10
2024-05-09T21:59:34.751Z,81.41
2024-05-09T22:01:36.976Z,81.36
2024-05-09T22:03:39.321Z,81.21
2024-05-09T22:05:43.808Z,82.49
2024-05-09T22:07:45.950Z,82.59
2024-05-09T22:09:48.151Z,83.00
2024-05-09T22:11:52.578Z,82.92
2024-05-09T22:13:55.418Z,83.70
2024-05-09T22:15:57.519Z,83.43
2024-05-09T22:17:59.736Z,83.58
2024-05-09T22:20:01.879Z,83.55
2024-05-09T22:22:04.236Z,83.90
2024-05-09T22:24:06.791Z,83.03
2024-05-09T22:26:09.191Z,83.31
2024-05-09T22:28:16.380Z,83.92
2024-05-09T22:30:23.997Z,84.03
2024-05-09T22:32:33.740Z,84.85
2024-05-09T22:34:36.114Z,83.99
2024-05-09T22:36:38.337Z,84.00
2024-05-09T22:38:40.442Z,84.08
2024-05-09T22:40:48.018Z,84.05
2024-05-09T22:42:52.094Z,83.78
2024-05-09T22:44:54.351Z,83.99
2024-05-09T22:46:56.651Z,84.42
2024-05-09T22:48:59.012Z,84.64
2024-05-09T22:51:01.211Z,84.13
2024-05-09T22:53:03.892Z,84.23
2024-05-09T22:55:06.586Z,84.42
2024-05-09T22:57:08.965Z,84.55
2024-05-09T22:59:11.335Z,83.97
2024-05-09T23:01:16.542Z,83.80
2024-05-09T23:03:21.704Z,84.81
2024-05-09T23:05:24.375Z,84.98
2024-05-09T23:07:27.146Z,84.61
2024-05-09T23:09:29.208Z,84.36
2024-05-09T23:11:31.312Z,84.86
2024-05-09T23:13:36.806Z,84.35
2024-05-09T23:15:39.257Z,84.52
2024-05-09T23:17:41.718Z,84.10
2024-05-09T23:19:44.361Z,84.03
2024-05-09T23:21:46.601Z,82.86
2024-05-09T23:23:48.729Z,82.63
2024-05-09T23:25:50.788Z,83.21
2024-05-09T23:27:52.893Z,83.86
2024-05-09T23:29:55.013Z,83.10
2024-05-09T23:31:57.341Z,82.96
2024-05-09T23:33:59.640Z,83.50
2024-05-09T23:36:01.896Z,84.08
2024-05-09T23:38:05.029Z,84.41
2024-05-09T23:40:09.649Z,83.55
2024-05-09T23:42:11.928Z,83.69
2024-05-09T23:44:14.050Z,83.35
2024-05-09T23:46:16.172Z,83.39
2024-05-09T23:48:18.578Z,83.63
2024-05-09T23:50:26.529Z,83.16
2024-05-09T23:52:36.316Z,83.51
2024-05-09T23:54:38.547Z,84.10
2024-05-09T23:56:40.647Z,83.38
2024-05-09T23:58:43.284Z,83.56
